| time (UTC) | temp F | wind direction | speed knots | gust knots | rain 1hr in | rain 24hr in | rain mn in | humidity % | barometer mb |
| 20260831094536 | 56 | 173 | 4.3 | 12.2 | 0.00 | 0.02 | 0.02 | 76 | 1007.9 |
| 20260831093035 | 56 | 335 | 1.7 | 7.0 | 0.00 | 0.02 | 0.02 | 78 | 1008.0 |
| 20260831091533 | 56 | 39 | 1.7 | 8.7 | 0.00 | 0.02 | 0.02 | 77 | 1007.8 |
| 20260831090034 | 56 | 285 | 3.5 | 14.8 | 0.00 | 0.02 | 0.02 | 77 | 1007.6 |
| 20260831084532 | 56 | 93 | 1.7 | 8.7 | 0.00 | 0.02 | 0.02 | 78 | 1007.1 |
| 20260831083038 | 56 | 131 | 1.7 | 8.7 | 0.00 | 0.02 | 0.02 | 78 | 1007.0 |
| 20260831081531 | 56 | 123 | 0.9 | 5.2 | 0.00 | 0.02 | 0.02 | 79 | 1007.2 |
| 20260831080030 | 56 | 299 | 0.9 | 5.2 | 0.00 | 0.02 | 0.02 | 80 | 1007.0 |
| 20260831074530 | 56 | 108 | 0.9 | 7.0 | 0.00 | 0.02 | 0.02 | 81 | 1007.1 |
| 20260831073029 | 57 | 324 | 2.6 | 11.3 | 0.00 | 0.02 | 0.02 | 80 | 1006.9 |
| 20260831071528 | 57 | 288 | 4.3 | 11.3 | 0.00 | 0.02 | 0.02 | 79 | 1006.6 |
| 20260831070028 | 57 | 329 | 4.3 | 13.0 | 0.00 | 0.02 | 0.02 | 78 | 1006.6 |
| 20260831064527 | 57 | 168 | 3.5 | 11.3 | 0.00 | 0.02 | 0.02 | 77 | 1006.3 |
| 20260831063026 | 57 | 331 | 4.3 | 9.6 | 0.00 | 0.02 | 0.02 | 76 | 1006.5 |
| 20260831061526 | 57 | 207 | 1.7 | 11.3 | 0.00 | 0.02 | 0.02 | 77 | 1006.9 |
| 20260831060026 | 58 | 196 | 1.7 | 12.2 | 0.00 | 0.02 | 0.02 | 78 | 1007.0 |
| 20260831054524 | 58 | 276 | 4.3 | 16.5 | 0.00 | 0.02 | 0.02 | 77 | 1006.4 |
| 20260831053024 | 58 | 227 | 5.2 | 14.8 | 0.00 | 0.02 | 0.02 | 78 | 1005.9 |
| 20260831051527 | 58 | 288 | 4.3 | 9.6 | 0.00 | 0.02 | 0.02 | 79 | 1005.8 |
| 20260831050024 | 58 | 257 | 6.1 | 14.8 | 0.00 | 0.02 | 0.02 | 80 | 1006.2 |
| 20260831044521 | 58 | 253 | 7.0 | 13.9 | 0.00 | 0.02 | 0.02 | 80 | 1006.2 |
| 20260831043020 | 58 | 211 | 6.1 | 13.9 | 0.00 | 0.02 | 0.02 | 83 | 1006.4 |
| 20260831041550 | 58 | 288 | 3.5 | 13.0 | 0.00 | 0.02 | 0.02 | 85 | 1006.5 |
| 20260831040020 | 59 | 252 | 6.1 | 17.4 | 0.00 | 0.02 | 0.02 | 79 | 1005.9 |
| 20260831034519 | 60 | 252 | 5.2 | 15.6 | 0.00 | 0.02 | 0.02 | 74 | 1005.8 |
| 20260831033022 | 61 | 295 | 7.8 | 15.6 | 0.00 | 0.02 | 0.02 | 73 | 1006.0 |
| 20260831031518 | 61 | 229 | 5.2 | 18.2 | 0.00 | 0.02 | 0.02 | 75 | 1005.9 |
| 20260831030016 | 61 | 256 | 7.0 | 19.1 | 0.00 | 0.02 | 0.02 | 76 | 1005.6 |
| 20260831024515 | 61 | 219 | 5.2 | 17.4 | 0.00 | 0.02 | 0.02 | 73 | 1005.6 |
| 20260831023014 | 61 | 264 | 9.6 | 21.7 | 0.00 | 0.02 | 0.02 | 73 | 1005.8 |
| 20260831021523 | 62 | 290 | 6.1 | 13.0 | 0.00 | 0.02 | 0.02 | 73 | 1005.8 |
| 20260831020014 | 62 | 192 | 5.2 | 19.1 | 0.02 | 0.02 | 0.02 | 75 | 1006.0 |
| 20260831014519 | 61 | 247 | 7.8 | 18.2 | 0.02 | 0.02 | 0.02 | 78 | 1006.0 |
| 20260831013012 | 59 | 290 | 7.0 | 15.6 | 0.02 | 0.02 | 0.02 | 82 | 1006.0 |
| 20260831011519 | 60 | 263 | 8.7 | 16.5 | 0.02 | 0.02 | 0.02 | 81 | 1006.2 |
| 20260831010009 | 63 | 290 | 9.6 | 20.0 | 0.00 | 0.00 | 0.00 | 71 | 1006.2 |
| 20260831004508 | 62 | 281 | 11.3 | 24.3 | 0.00 | 0.00 | 0.00 | 72 | 1006.3 |
| 20260831003007 | 62 | 256 | 8.7 | 20.9 | 0.00 | 0.00 | 0.00 | 70 | 1006.5 |
| 20260831001507 | 63 | 233 | 7.8 | 21.7 | 0.00 | 0.00 | 0.00 | 69 | 1006.4 |
| 20260831000004 | 61 | 331 | 5.2 | 13.0 | 0.00 | 0.00 | 0.00 | 75 | 1006.7 |
| 20260830234502 | 60 | 288 | 7.0 | 15.6 | 0.00 | 0.00 | 0.00 | 77 | 1006.8 |
| 20260830233006 | 62 | 276 | 7.8 | 21.7 | 0.00 | 0.00 | 0.00 | 71 | 1006.9 |
| 20260830231559 | 61 | 252 | 8.7 | 18.2 | 0.00 | 0.00 | 0.00 | 70 | 1006.8 |
| 20260830230059 | 61 | 257 | 7.0 | 16.5 | 0.00 | 0.00 | 0.00 | 72 | 1007.1 |
| 20260830224556 | 60 | 266 | 6.1 | 20.9 | 0.00 | 0.00 | 0.00 | 73 | 1007.0 |
| 20260830223130 | 60 | 243 | 8.7 | 18.2 | 0.00 | 0.00 | 0.00 | 75 | 1007.3 |
| 20260830221556 | 60 | 299 | 8.7 | 14.8 | 0.00 | 0.00 | 0.00 | 72 | 1007.3 |
| 20260830220052 | 60 | 271 | 8.7 | 15.6 | 0.00 | 0.00 | 0.00 | 73 | 1007.7 |
| 20260830214550 | 60 | 271 | 7.0 | 20.9 | 0.00 | 0.00 | 0.00 | 73 | 1007.5 |
| 20260830213049 | 59 | 291 | 9.6 | 17.4 | 0.00 | 0.00 | 0.00 | 74 | 1007.2 |
| 20260830211545 | 59 | 280 | 6.1 | 14.8 | 0.00 | 0.00 | 0.00 | 77 | 1007.5 |
| 20260830210042 | 58 | 267 | 7.0 | 16.5 | 0.00 | 0.00 | 0.00 | 77 | 1007.6 |
| 20260830204540 | 57 | 250 | 6.1 | 11.3 | 0.00 | 0.00 | 0.00 | 80 | 1007.7 |
| 20260830203041 | 57 | 279 | 6.1 | 15.6 | 0.00 | 0.00 | 0.00 | 78 | 1007.7 |
| 20260830201538 | 56 | 256 | 6.1 | 13.9 | 0.00 | 0.00 | 0.00 | 78 | 1007.7 |
| 20260830200038 | 56 | 256 | 7.8 | 19.1 | 0.00 | 0.00 | 0.00 | 77 | 1007.7 |
| 20260830194544 | 56 | 325 | 4.3 | 19.1 | 0.00 | 0.00 | 0.00 | 78 | 1007.8 |
| 20260830193039 | 56 | 228 | 5.2 | 20.9 | 0.00 | 0.00 | 0.00 | 78 | 1007.8 |
| 20260830191534 | 56 | 248 | 7.0 | 13.0 | 0.00 | 0.00 | 0.00 | 77 | 1007.8 |
| 20260830190031 | 56 | 243 | 5.2 | 15.6 | 0.00 | 0.00 | 0.00 | 78 | 1007.2 |
| 20260830184534 | 56 | 259 | 7.8 | 15.6 | 0.00 | 0.00 | 0.00 | 76 | 1007.0 |
| 20260830183027 | 56 | 288 | 7.0 | 22.6 | 0.00 | 0.00 | 0.00 | 76 | 1006.9 |
| 20260830181525 | 56 | 295 | 8.7 | 20.9 | 0.00 | 0.00 | 0.00 | 77 | 1006.6 |
| 20260830180022 | 56 | 252 | 4.3 | 18.2 | 0.00 | 0.00 | 0.00 | 78 | 1006.4 |
| 20260830174521 | 55 | 228 | 7.0 | 18.2 | 0.00 | 0.00 | 0.00 | 79 | 1006.1 |
| 20260830173018 | 56 | 217 | 6.1 | 17.4 | 0.00 | 0.00 | 0.00 | 78 | 1006.1 |
| 20260830171517 | 55 | 205 | 7.0 | 15.6 | 0.00 | 0.00 | 0.00 | 79 | 1006.2 |
| 20260830170016 | 56 | 293 | 5.2 | 17.4 | 0.00 | 0.00 | 0.00 | 80 | 1006.1 |
| 20260830164512 | 56 | 164 | 4.3 | 17.4 | 0.00 | 0.00 | 0.00 | 77 | 1006.1 |
| 20260830163014 | 56 | 290 | 6.1 | 16.5 | 0.00 | 0.00 | 0.00 | 76 | 1005.7 |
| 20260830161512 | 56 | 203 | 7.0 | 15.6 | 0.00 | 0.00 | 0.00 | 76 | 1005.8 |
| 20260830160009 | 56 | 288 | 4.3 | 12.2 | 0.00 | 0.00 | 0.00 | 76 | 1006.1 |
| 20260830154507 | 56 | 302 | 5.2 | 13.9 | 0.00 | 0.01 | 0.00 | 76 | 1005.7 |
| 20260830153004 | 57 | 289 | 5.2 | 16.5 | 0.00 | 0.01 | 0.00 | 75 | 1005.5 |
| 20260830151502 | 57 | 213 | 8.7 | 19.1 | 0.00 | 0.01 | 0.00 | 75 | 1005.3 |
| 20260830150002 | 57 | 215 | 7.8 | 18.2 | 0.00 | 0.01 | 0.00 | 74 | 1005.1 |
| 20260830144600 | 57 | 274 | 7.0 | 23.5 | 0.00 | 0.01 | 0.00 | 74 | 1005.0 |
| 20260830143058 | 57 | 226 | 4.3 | 13.0 | 0.00 | 0.01 | 0.00 | 79 | 1005.2 |
| 20260830141558 | 57 | 184 | 4.3 | 12.2 | 0.00 | 0.01 | 0.00 | 81 | 1005.3 |
| 20260830140054 | 57 | 278 | 7.0 | 20.0 | 0.00 | 0.01 | 0.00 | 80 | 1005.0 |
| 20260830134553 | 57 | 252 | 7.0 | 16.5 | 0.00 | 0.01 | 0.00 | 79 | 1004.9 |
| 20260830133059 | 57 | 207 | 5.2 | 16.5 | 0.00 | 0.01 | 0.00 | 80 | 1004.8 |
| 20260830131553 | 57 | 266 | 3.5 | 16.5 | 0.00 | 0.01 | 0.00 | 81 | 1004.9 |
| 20260830130057 | 57 | 235 | 4.3 | 12.2 | 0.00 | 0.01 | 0.00 | 79 | 1004.9 |
| 20260830124546 | 57 | 288 | 7.0 | 20.9 | 0.00 | 0.01 | 0.00 | 78 | 1004.5 |
| 20260830123044 | 57 | 289 | 7.8 | 16.5 | 0.00 | 0.01 | 0.00 | 78 | 1004.7 |
| 20260830121542 | 57 | 290 | 8.7 | 19.1 | 0.00 | 0.01 | 0.00 | 78 | 1004.4 |
| 20260830120045 | 58 | 222 | 5.2 | 19.1 | 0.00 | 0.01 | 0.00 | 78 | 1004.5 |
| 20260830114540 | 57 | 250 | 6.1 | 13.0 | 0.00 | 0.01 | 0.01 | 78 | 1004.8 |
| 20260830113038 | 58 | 248 | 4.3 | 14.8 | 0.00 | 0.01 | 0.01 | 78 | 1005.0 |
| 20260830111538 | 58 | 228 | 4.3 | 13.9 | 0.00 | 0.01 | 0.01 | 78 | 1005.1 |
| 20260830110136 | 58 | 240 | 5.2 | 15.6 | 0.00 | 0.01 | 0.01 | 78 | 1005.2 |
| 20260830104538 | 58 | 138 | 4.3 | 14.8 | 0.00 | 0.18 | 0.01 | 78 | 1005.0 |
| 20260830103037 | 58 | 248 | 5.2 | 18.2 | 0.00 | 0.18 | 0.01 | 77 | 1004.8 |
| 20260830101534 | 58 | 200 | 5.2 | 13.9 | 0.00 | 0.18 | 0.01 | 77 | 1004.8 |
| 20260830100047 | 58 | 228 | 7.0 | 14.8 | 0.00 | 0.18 | 0.01 | 79 | 1004.8 |